Time;durP1;ratioP1;P1;durP2;ratioP2;P2;SDS_P1;SDS_P2;PMS_P1;PMS_P2;Temp;Humidity;BMP_temperature;BMP_pressure;BME280_temperature;BME280_humidity;BME280_pressure;Samples;Min_cycle;Max_cycle;Signal;HPM_P1;HPM_P2
2022/07/03 08:20:03;;;;;;;13.65;6.40;;;34.40;99.90;;;;;;6220655;23;20090;-95
2022/07/03 08:22:40;;;;;;;13.10;6.20;;;34.20;99.90;;;;;;6167245;23;20457;-93
2022/07/03 08:25:10;;;;;;;15.38;5.82;;;34.20;99.90;;;;;;6192201;23;20084;-94
2022/07/03 08:27:39;;;;;;;12.38;5.72;;;33.80;99.90;;;;;;6192166;23;20028;-93
2022/07/03 08:30:08;;;;;;;16.10;5.80;;;33.50;99.90;;;;;;6215544;23;20012;-92
2022/07/03 08:32:34;;;;;;;11.60;5.63;;;33.70;99.90;;;;;;6215391;23;20095;-93
2022/07/03 08:35:01;;;;;;;15.10;6.88;;;34.30;99.90;;;;;;6190348;23;20013;-93
2022/07/03 08:37:28;;;;;;;9.57;5.43;;;34.40;99.90;;;;;;6163364;23;20012;-93
2022/07/03 08:39:55;;;;;;;13.05;5.15;;;34.20;99.90;;;;;;6165784;23;20443;-92
2022/07/03 08:42:23;;;;;;;20.48;6.15;;;34.40;99.90;;;;;;6190664;23;20059;-93
2022/07/03 08:44:52;;;;;;;15.32;7.03;;;34.70;99.90;;;;;;6165628;23;20008;-95
2022/07/03 08:47:20;;;;;;;15.23;5.68;;;34.60;99.90;;;;;;6187823;23;20088;-94
2022/07/03 08:49:48;;;;;;;17.02;5.65;;;34.80;99.90;;;;;;6165933;23;20025;-93
2022/07/03 08:52:27;;;;;;;13.20;5.70;;;35.40;99.90;;;;;;6170786;23;20439;-93
2022/07/03 08:55:03;;;;;;;10.70;5.05;;;35.10;99.90;;;;;;6196587;23;20084;-94
2022/07/03 08:58:15;;;;;;;;;;;;;;;;;;;;;
2022/07/03 09:01:04;;;;;;;18.38;5.60;;;35.10;99.90;;;;;;6155303;23;20002;-94
2022/07/03 09:03:43;;;;;;;11.93;5.50;;;35.20;99.90;;;;;;6131750;23;20365;-94
2022/07/03 09:06:18;;;;;;;16.63;5.35;;;35.20;99.90;;;;;;6155927;23;20009;-92
2022/07/03 09:08:55;;;;;;;15.65;5.82;;;34.90;99.90;;;;;;6130905;23;20088;-94
2022/07/03 09:11:24;;;;;;;12.88;6.47;;;35.10;99.90;;;;;;6155034;23;20016;-94
2022/07/03 09:13:54;;;;;;;12.80;6.32;;;35.00;99.90;;;;;;6154455;23;20025;-94
2022/07/03 09:16:42;;;;;;;13.80;5.60;;;34.60;99.90;;;;;;6154422;23;20018;-93
2022/07/03 09:20:03;;;;;;;15.23;5.75;;;34.70;99.90;;;;;;6130852;23;20096;-93
2022/07/03 09:23:07;;;;;;;19.85;7.05;;;34.80;99.90;;;;;;6136193;23;20037;-93
2022/07/03 09:26:25;;;;;;;13.60;6.57;;;35.20;99.90;;;;;;6114345;23;20013;-94
2022/07/03 09:29:13;;;;;;;13.48;6.07;;;35.60;99.90;;;;;;6135184;23;20249;-94
2022/07/03 09:31:40;;;;;;;10.65;5.78;;;35.20;99.90;;;;;;6178672;23;20008;-94
2022/07/03 09:34:07;;;;;;;12.75;6.40;;;34.70;99.90;;;;;;6168465;23;20032;-94
2022/07/03 09:36:44;;;;;;;20.83;6.40;;;34.80;99.90;;;;;;6220537;23;20008;-92
2022/07/03 09:39:31;;;;;;;10.88;5.93;;;34.40;99.90;;;;;;6194544;23;20012;-94
2022/07/03 09:42:00;;;;;;;11.40;5.75;;;34.40;99.90;;;;;;6192908;23;20004;-90
2022/07/03 09:44:45;;;;;;;12.63;5.72;;;34.60;99.90;;;;;;6175660;23;20012;-93
2022/07/03 09:47:29;;;;;;;11.70;6.05;;;34.30;99.90;;;;;;6210185;23;19989;-93
2022/07/03 09:50:05;;;;;;;14.35;6.80;;;33.70;99.90;;;;;;6228046;23;20005;-93
2022/07/03 09:52:48;;;;;;;11.23;5.90;;;33.80;99.90;;;;;;6192873;23;20009;-92
2022/07/03 09:55:18;;;;;;;12.70;6.47;;;33.90;99.90;;;;;;6168349;23;20013;-92
2022/07/03 09:57:52;;;;;;;12.10;5.78;;;34.00;99.90;;;;;;6192130;23;20023;-92
2022/07/03 10:00:30;;;;;;;14.45;5.93;;;33.80;99.90;;;;;;6167077;23;20406;-94
2022/07/03 10:03:12;;;;;;;20.50;7.03;;;34.00;99.90;;;;;;6195109;23;20009;-92
2022/07/03 10:05:45;;;;;;;16.17;6.95;;;34.00;99.90;;;;;;6191842;23;20078;-93
2022/07/03 10:08:19;;;;;;;13.47;7.13;;;33.80;99.90;;;;;;6216679;23;20009;-93
2022/07/03 10:10:46;;;;;;;;;;;33.50;99.90;;;;;;6191956;23;20012;-91
2022/07/03 10:13:15;;;;;;;11.88;5.90;;;33.40;99.90;;;;;;6216650;23;19922;-94
2022/07/03 10:15:43;;;;;;;18.13;6.97;;;33.70;99.90;;;;;;6192604;23;20009;-94
2022/07/03 10:18:12;;;;;;;10.63;5.72;;;33.50;99.90;;;;;;6166741;23;20025;-92
2022/07/03 10:20:44;;;;;;;13.63;5.82;;;33.50;99.90;;;;;;6216740;23;20004;-96
2022/07/03 10:23:20;;;;;;;16.13;8.50;;;33.60;99.90;;;;;;6167129;23;20013;-93
2022/07/03 10:25:48;;;;;;;12.98;5.82;;;33.90;99.90;;;;;;6216604;23;20079;-94
2022/07/03 10:28:16;;;;;;;12.88;5.88;;;33.80;99.90;;;;;;6216566;23;20000;-92
2022/07/03 10:30:45;;;;;;;12.90;5.65;;;33.80;99.90;;;;;;6217514;23;20019;-94
2022/07/03 10:33:12;;;;;;;15.35;6.82;;;33.40;99.90;;;;;;6220635;23;20504;-92
2022/07/03 10:35:48;;;;;;;12.65;5.53;;;33.30;99.90;;;;;;6221765;23;20334;-93
2022/07/03 10:38:14;;;;;;;13.05;5.85;;;33.30;99.90;;;;;;6217272;23;20036;-92
2022/07/03 10:46:39;;;;;;;12.02;6.35;;;33.90;99.90;;;;;;6192150;23;20016;-92
2022/07/03 10:49:08;;;;;;;16.33;6.43;;;33.90;99.90;;;;;;6181065;23;20005;-94
2022/07/03 10:51:55;;;;;;;11.60;5.43;;;33.70;99.90;;;;;;6156015;23;20068;-92
2022/07/03 10:54:36;;;;;;;14.07;5.53;;;33.80;99.90;;;;;;6156365;23;20025;-93
2022/07/03 10:57:08;;;;;;;12.30;6.60;;;33.50;99.90;;;;;;6157356;23;20021;-93
2022/07/03 10:59:40;;;;;;;14.77;6.65;;;33.60;99.90;;;;;;6155931;23;20013;-93
2022/07/03 11:02:30;;;;;;;16.37;6.33;;;33.60;99.90;;;;;;6155750;23;20009;-92
2022/07/03 11:05:03;;;;;;;12.27;6.47;;;33.40;99.90;;;;;;6155911;23;20088;-92
2022/07/03 11:07:34;;;;;;;9.53;5.53;;;33.30;99.90;;;;;;6155853;23;20100;-93
2022/07/03 11:10:13;;;;;;;11.57;6.05;;;33.10;99.90;;;;;;6159809;23;20328;-94
2022/07/03 11:13:20;;;;;;;11.07;6.00;;;33.20;99.90;;;;;;6161312;23;20089;-92
2022/07/03 11:15:50;;;;;;;13.40;6.85;;;33.10;99.90;;;;;;6161561;23;20036;-92
2022/07/03 11:18:32;;;;;;;13.27;6.15;;;33.30;99.90;;;;;;6177106;23;20013;-92
2022/07/03 11:21:21;;;;;;;14.90;6.18;;;33.30;99.90;;;;;;6183516;23;20049;-93
2022/07/03 11:24:16;;;;;;;14.60;5.78;;;33.40;99.90;;;;;;6208162;23;19997;-93
2022/07/03 11:26:42;;;;;;;11.30;6.07;;;32.90;99.90;;;;;;6170707;23;20001;-92
2022/07/03 11:29:30;;;;;;;12.88;5.95;;;33.10;99.90;;;;;;6242433;23;20012;-94
2022/07/03 11:31:56;;;;;;;16.48;6.30;;;33.40;99.90;;;;;;6243199;23;20008;-93
2022/07/03 11:34:23;;;;;;;19.10;5.90;;;33.40;99.90;;;;;;6243190;23;20039;-94
2022/07/03 11:36:50;;;;;;;18.35;6.47;;;33.30;99.90;;;;;;6243528;23;20011;-93
2022/07/03 11:39:20;;;;;;;12.15;6.05;;;33.10;99.90;;;;;;6243332;22;20031;-92
2022/07/03 11:41:47;;;;;;;11.93;5.22;;;33.20;99.90;;;;;;6243473;23;20008;-93
2022/07/03 11:44:20;;;;;;;14.98;6.28;;;33.10;99.90;;;;;;6227440;23;20008;-92
2022/07/03 11:46:50;;;;;;;12.10;6.53;;;33.30;99.90;;;;;;6216248;23;20461;-93
2022/07/03 11:49:25;;;;;;;19.15;7.35;;;33.10;99.90;;;;;;6215977;23;20004;-92
2022/07/03 11:52:01;;;;;;;11.90;5.35;;;33.20;99.90;;;;;;6215634;23;20013;-93
2022/07/03 11:54:49;;;;;;;14.88;6.72;;;33.10;99.90;;;;;;6215556;23;20059;-93
2022/07/03 11:57:16;;;;;;;9.93;5.38;;;33.10;99.90;;;;;;6216218;23;20404;-93
2022/07/03 11:59:42;;;;;;;11.05;5.88;;;32.70;99.90;;;;;;6215671;23;20008;-94
2022/07/03 12:02:09;;;;;;;14.73;6.00;;;32.90;99.90;;;;;;6215548;23;20012;-92
2022/07/03 12:04:40;;;;;;;10.65;5.32;;;33.10;99.90;;;;;;6216756;23;20010;-93
2022/07/03 12:07:08;;;;;;;10.85;5.78;;;32.80;99.90;;;;;;6217455;23;20014;-91
2022/07/03 12:09:36;;;;;;;8.00;5.47;;;32.70;99.90;;;;;;6222237;23;20001;-91
2022/07/03 12:12:05;;;;;;;14.57;5.93;;;32.90;99.90;;;;;;6226464;23;20009;-92
2022/07/03 12:14:50;;;;;;;11.90;5.60;;;33.20;99.90;;;;;;6227647;23;20054;-93
2022/07/03 12:17:25;;;;;;;11.57;5.82;;;33.50;99.90;;;;;;6237173;23;20056;-92
2022/07/03 12:19:55;;;;;;;11.27;7.20;;;33.80;99.90;;;;;;6198876;23;20000;-92
2022/07/03 12:22:33;;;;;;;9.38;5.78;;;33.70;99.90;;;;;;6224238;23;20004;-91
2022/07/03 12:25:10;;;;;;;11.52;6.30;;;33.60;99.90;;;;;;6226438;23;20004;-92
2022/07/03 12:27:45;;;;;;;9.70;6.30;;;33.40;99.90;;;;;;6201715;23;20427;-93
2022/07/03 12:30:21;;;;;;;8.38;6.40;;;33.10;99.90;;;;;;6224628;23;20071;-93
2022/07/03 12:32:48;;;;;;;11.25;6.20;;;33.30;99.90;;;;;;6224233;23;20019;-92
2022/07/03 12:35:21;;;;;;;9.30;5.47;;;33.40;99.90;;;;;;6218956;23;20001;-92
2022/07/03 12:37:55;;;;;;;11.50;6.22;;;33.50;99.90;;;;;;6215096;23;20090;-95
2022/07/03 12:40:22;;;;;;;12.82;6.40;;;33.60;99.90;;;;;;6217142;23;20042;-91
2022/07/03 12:42:54;;;;;;;9.10;6.32;;;33.70;99.90;;;;;;6215586;23;20083;-92
2022/07/03 12:45:27;;;;;;;11.20;6.15;;;33.50;99.90;;;;;;6220108;23;20011;-92
2022/07/03 12:48:02;;;;;;;14.27;5.93;;;33.40;99.90;;;;;;6217018;23;20005;-92
2022/07/03 12:50:57;;;;;;;10.65;6.32;;;33.40;99.90;;;;;;6216504;23;20040;-92
2022/07/03 12:53:29;;;;;;;13.48;7.07;;;33.50;99.90;;;;;;6131119;23;20085;-92
2022/07/03 12:56:02;;;;;;;10.75;6.30;;;33.60;99.90;;;;;;6155892;23;20018;-92
2022/07/03 13:01:36;;;;;;;12.85;7.20;;;33.80;99.90;;;;;;6132968;23;20005;-90
2022/07/03 13:04:06;;;;;;;12.10;7.22;;;33.80;99.90;;;;;;6157681;23;20036;-91
2022/07/03 13:06:32;;;;;;;9.90;6.95;;;33.70;99.90;;;;;;6157130;23;20012;-92
2022/07/03 13:09:02;;;;;;;10.93;7.25;;;33.70;99.90;;;;;;6158694;23;20049;-92
2022/07/03 13:11:34;;;;;;;10.85;7.13;;;33.90;99.90;;;;;;6157801;23;20093;-92
2022/07/03 13:14:06;;;;;;;9.57;7.18;;;33.80;99.90;;;;;;6157704;23;20001;-92
2022/07/03 13:16:47;;;;;;;9.98;6.75;;;33.40;99.90;;;;;;6133131;23;20080;-93
2022/07/03 13:19:34;;;;;;;7.65;6.38;;;33.30;99.90;;;;;;6159829;23;20017;-92
2022/07/03 13:22:00;;;;;;;10.02;6.65;;;33.30;99.90;;;;;;6157598;23;20487;-91
2022/07/03 13:24:27;;;;;;;10.85;7.45;;;33.50;99.90;;;;;;6157835;23;20009;-92
2022/07/03 13:26:58;;;;;;;11.68;7.95;;;33.70;99.90;;;;;;6160197;23;20010;-90
2022/07/03 13:29:25;;;;;;;13.55;7.88;;;34.10;99.90;;;;;;6173441;23;20088;-91
2022/07/03 13:31:53;;;;;;;9.82;7.57;;;33.90;99.90;;;;;;6218269;23;20043;-91
2022/07/03 13:34:19;;;;;;;11.77;8.18;;;34.10;99.90;;;;;;6217962;23;20015;-90
2022/07/03 13:36:46;;;;;;;14.55;8.57;;;33.90;99.90;;;;;;6218038;23;20017;-91
2022/07/03 13:39:16;;;;;;;10.00;7.07;;;33.90;99.90;;;;;;6218132;23;20079;-90
2022/07/03 13:41:43;;;;;;;10.15;8.10;;;33.50;99.90;;;;;;6217489;23;20461;-91
2022/07/03 13:44:09;;;;;;;8.40;7.47;;;33.80;99.90;;;;;;6219331;23;20008;-91
2022/07/03 13:46:36;;;;;;;10.52;7.50;;;34.00;99.90;;;;;;6221197;23;20087;-93
2022/07/03 13:49:02;;;;;;;11.35;7.47;;;34.00;99.90;;;;;;6217424;23;20485;-93
2022/07/03 13:51:37;;;;;;;11.63;7.75;;;33.90;99.90;;;;;;6217666;23;20033;-92
2022/07/03 13:54:04;;;;;;;9.70;7.90;;;33.80;99.90;;;;;;6217348;23;20008;-91
2022/07/03 13:56:31;;;;;;;12.88;8.02;;;33.80;99.90;;;;;;6218089;23;20032;-91
2022/07/03 13:58:57;;;;;;;8.77;7.88;;;33.80;99.90;;;;;;6217575;23;20017;-92
2022/07/03 14:01:23;;;;;;;15.85;8.55;;;33.80;99.90;;;;;;6217436;23;20005;-91
2022/07/03 14:03:53;;;;;;;12.35;7.55;;;33.60;99.90;;;;;;6217666;23;20091;-92
2022/07/03 14:06:19;;;;;;;10.40;7.63;;;33.60;99.90;;;;;;6217073;23;20490;-92
2022/07/03 14:08:46;;;;;;;12.07;8.27;;;33.70;99.90;;;;;;6216788;23;20011;-92
2022/07/03 14:11:14;;;;;;;11.60;8.45;;;33.70;99.90;;;;;;6217449;23;20009;-92
2022/07/03 14:13:41;;;;;;;14.10;8.23;;;33.60;99.90;;;;;;6216877;23;20005;-95
2022/07/03 14:16:07;;;;;;;11.43;8.05;;;33.50;99.90;;;;;;6216351;23;20015;-93
2022/07/03 14:18:34;;;;;;;13.13;7.63;;;33.60;99.90;;;;;;6216124;23;20466;-93
2022/07/03 14:21:00;;;;;;;9.18;8.23;;;33.60;99.90;;;;;;6216733;23;20008;-93
2022/07/03 14:23:30;;;;;;;14.20;8.93;;;33.60;99.90;;;;;;6220517;23;20051;-92
2022/07/03 14:25:56;;;;;;;12.57;9.57;;;33.60;99.90;;;;;;6217041;23;20004;-93
2022/07/03 14:33:51;;;;;;;12.20;9.88;;;33.50;99.90;;;;;;6216703;23;20013;-93
2022/07/03 14:36:18;;;;;;;10.95;9.80;;;33.70;99.90;;;;;;6216717;23;20083;-93
2022/07/03 14:38:45;;;;;;;10.93;8.70;;;33.90;99.90;;;;;;6216587;23;20080;-94
2022/07/03 14:41:13;;;;;;;12.25;10.07;;;33.90;99.90;;;;;;6217089;23;20005;-92
2022/07/03 14:43:39;;;;;;;11.13;9.40;;;34.00;99.90;;;;;;6216426;23;20091;-94
2022/07/03 14:46:06;;;;;;;12.40;10.38;;;33.90;99.90;;;;;;6190719;23;20004;-92
2022/07/03 14:48:32;;;;;;;11.77;10.43;;;33.80;99.90;;;;;;6191891;23;20008;-91
2022/07/03 14:50:59;;;;;;;10.38;9.27;;;33.80;99.90;;;;;;6216347;23;20005;-92
2022/07/03 14:53:26;;;;;;;10.18;9.18;;;33.70;99.90;;;;;;6217479;23;20095;-92
2022/07/03 14:55:55;;;;;;;10.52;9.48;;;33.60;99.90;;;;;;6216631;23;20004;-93
2022/07/03 14:58:27;;;;;;;9.82;8.93;;;33.60;99.90;;;;;;6216175;23;20044;-93
2022/07/03 15:00:56;;;;;;;11.00;9.43;;;33.60;99.90;;;;;;6216294;23;20032;-93
2022/07/03 15:03:31;;;;;;;12.18;10.20;;;33.80;99.90;;;;;;6221370;23;20009;-92
2022/07/03 15:06:07;;;;;;;10.82;9.88;;;33.90;99.90;;;;;;6203212;23;20005;-92
2022/07/03 15:08:34;;;;;;;11.07;9.93;;;33.90;99.90;;;;;;6204937;23;20060;-92
2022/07/03 15:11:08;;;;;;;10.93;10.02;;;33.90;99.90;;;;;;6181577;23;20032;-91
2022/07/03 15:13:34;;;;;;;;;;;33.80;99.90;;;;;;6205758;23;20004;-93
2022/07/03 15:16:02;;;;;;;10.82;9.77;;;33.80;99.90;;;;;;6218267;23;19903;-96
2022/07/03 15:18:29;;;;;;;10.70;9.75;;;33.70;99.90;;;;;;6216510;23;20017;-92
2022/07/03 15:21:00;;;;;;;11.70;10.30;;;33.70;99.90;;;;;;6216298;23;20004;-92
2022/07/03 15:23:27;;;;;;;10.35;9.45;;;33.60;99.90;;;;;;6193628;23;20013;-92
2022/07/03 15:25:56;;;;;;;11.88;10.57;;;33.50;99.90;;;;;;6216628;23;20007;-93
2022/07/03 15:28:25;;;;;;;11.27;10.10;;;33.50;99.90;;;;;;6191132;23;20009;-93
2022/07/03 15:30:54;;;;;;;13.57;9.85;;;33.60;99.90;;;;;;6167219;23;20004;-94
2022/07/03 15:33:26;;;;;;;10.35;9.32;;;33.60;99.90;;;;;;6215997;23;20409;-93
2022/07/03 15:36:03;;;;;;;11.23;10.13;;;33.60;99.90;;;;;;6215846;23;20513;-92
2022/07/03 15:38:44;;;;;;;9.68;8.88;;;33.40;99.90;;;;;;6166180;23;20020;-93
2022/07/03 15:41:28;;;;;;;9.82;8.60;;;33.30;99.90;;;;;;6216124;23;20019;-95
2022/07/03 15:44:39;;;;;;;9.07;8.02;;;33.10;99.90;;;;;;6217722;23;20012;-92
2022/07/03 15:47:13;;;;;;;10.77;8.10;;;33.00;99.90;;;;;;6224643;23;20040;-92
2022/07/03 15:49:45;;;;;;;10.55;8.48;;;32.90;99.90;;;;;;6192299;23;20009;-92
2022/07/03 15:52:20;;;;;;;8.93;7.40;;;33.00;99.90;;;;;;6216485;23;20071;-93
2022/07/03 15:54:53;;;;;;;11.77;8.48;;;33.00;99.90;;;;;;6216966;23;20067;-93
2022/07/03 15:57:57;;;;;;;10.68;7.57;;;33.00;99.90;;;;;;6191717;23;20022;-92
2022/07/03 16:00:26;;;;;;;13.65;9.60;;;33.10;99.90;;;;;;6142206;23;20008;-93
2022/07/03 16:03:08;;;;;;;9.10;8.27;;;33.10;99.90;;;;;;6215390;23;20016;-93
2022/07/03 16:05:37;;;;;;;12.35;7.85;;;33.10;99.90;;;;;;6165883;23;20009;-93
2022/07/03 16:08:13;;;;;;;9.20;8.05;;;33.10;99.90;;;;;;6215635;23;20505;-94
2022/07/03 16:11:01;;;;;;;9.98;7.85;;;33.10;99.90;;;;;;6215742;23;20009;-93
2022/07/03 16:13:28;;;;;;;11.07;7.22;;;33.10;99.90;;;;;;6215836;23;20008;-93
2022/07/03 16:16:00;;;;;;;8.43;7.03;;;32.90;99.90;;;;;;6217044;23;20004;-92
2022/07/03 16:18:28;;;;;;;17.30;8.43;;;32.90;99.90;;;;;;6222909;23;20044;-92
2022/07/03 16:20:56;;;;;;;11.43;7.68;;;32.80;99.90;;;;;;6220171;23;20009;-93
2022/07/03 16:23:28;;;;;;;8.80;7.30;;;32.90;99.90;;;;;;6190915;23;20008;-92
2022/07/03 16:26:15;;;;;;;11.40;7.45;;;32.70;99.90;;;;;;6215188;23;20028;-92
2022/07/03 16:28:45;;;;;;;10.85;6.70;;;32.50;99.90;;;;;;6216254;23;20013;-92
2022/07/03 16:31:20;;;;;;;9.25;6.93;;;32.60;99.90;;;;;;6215670;23;20004;-91
2022/07/03 16:34:00;;;;;;;11.32;7.25;;;32.70;99.90;;;;;;6215365;23;20074;-93
2022/07/03 16:36:30;;;;;;;9.00;8.15;;;32.60;99.90;;;;;;6215639;23;20013;-93
2022/07/03 16:39:03;;;;;;;16.95;8.30;;;32.60;99.90;;;;;;6215771;23;20080;-92
2022/07/03 16:41:33;;;;;;;9.68;8.00;;;32.50;99.90;;;;;;6217513;23;20015;-93
2022/07/03 16:44:13;;;;;;;8.43;7.22;;;32.30;99.90;;;;;;6167170;23;20010;-93
2022/07/03 16:46:44;;;;;;;8.68;7.78;;;32.20;99.90;;;;;;6216096;23;20013;-93
2022/07/03 16:49:14;;;;;;;10.95;7.57;;;32.20;99.90;;;;;;6215490;23;20009;-93
2022/07/03 16:51:44;;;;;;;12.60;8.80;;;32.10;99.90;;;;;;6215547;23;20005;-92
2022/07/03 16:54:11;;;;;;;12.15;8.40;;;32.20;99.90;;;;;;6215702;23;20004;-93
2022/07/03 16:56:38;;;;;;;10.43;8.60;;;32.20;99.90;;;;;;6215231;23;20024;-93
2022/07/03 16:59:08;;;;;;;10.48;8.15;;;32.20;99.90;;;;;;6215780;23;20005;-94
2022/07/03 17:01:42;;;;;;;10.45;8.70;;;32.20;99.90;;;;;;6215179;23;20012;-93
2022/07/03 17:04:09;;;;;;;10.30;9.30;;;32.10;99.90;;;;;;6216802;23;20346;-95
2022/07/03 17:06:41;;;;;;;13.88;8.48;;;32.10;99.90;;;;;;6215157;23;20005;-93
2022/07/03 17:09:12;;;;;;;11.15;9.20;;;32.10;99.90;;;;;;6215595;23;20490;-92
2022/07/03 17:11:42;;;;;;;23.58;10.02;;;32.10;99.90;;;;;;6216232;23;20004;-92
2022/07/03 17:14:12;;;;;;;10.48;9.45;;;32.00;99.90;;;;;;6165540;23;20012;-92
2022/07/03 17:16:55;;;;;;;12.20;10.05;;;31.90;99.90;;;;;;6215243;23;20017;-93
2022/07/03 17:19:26;;;;;;;10.65;9.52;;;31.90;99.90;;;;;;6190536;23;20095;-93
2022/07/03 17:21:55;;;;;;;10.05;9.05;;;31.80;99.90;;;;;;6190948;23;20005;-93
2022/07/03 17:24:27;;;;;;;10.82;9.52;;;31.70;99.90;;;;;;6215155;23;20009;-95
2022/07/03 17:26:59;;;;;;;13.15;8.95;;;31.60;99.90;;;;;;6215186;23;20009;-93
2022/07/03 17:29:35;;;;;;;11.30;9.27;;;31.50;99.90;;;;;;6217626;23;20009;-94
2022/07/03 17:32:03;;;;;;;12.73;9.30;;;31.40;99.90;;;;;;6216710;23;20044;-94
2022/07/03 17:34:32;;;;;;;12.18;8.02;;;31.30;99.90;;;;;;6189764;23;20000;-95
2022/07/03 17:37:07;;;;;;;12.13;8.10;;;31.40;99.90;;;;;;6190430;23;20109;-93
2022/07/03 17:39:35;;;;;;;10.48;7.30;;;31.20;99.90;;;;;;6216494;23;20012;-93
2022/07/03 17:42:13;;;;;;;13.05;7.20;;;31.10;99.90;;;;;;6215722;23;20016;-93
2022/07/03 17:44:41;;;;;;;9.52;6.78;;;31.10;99.90;;;;;;6217946;23;20431;-93
2022/07/03 17:47:12;;;;;;;10.45;6.82;;;31.00;99.90;;;;;;6220914;23;20009;-93
2022/07/03 17:49:44;;;;;;;11.55;6.57;;;31.00;99.90;;;;;;6221556;23;20009;-93
2022/07/03 17:52:16;;;;;;;14.90;8.30;;;30.90;99.90;;;;;;6196555;23;20091;-93
2022/07/03 17:54:47;;;;;;;15.13;8.00;;;30.90;99.90;;;;;;6192690;23;20091;-91
2022/07/03 18:00:03;;;;;;;11.88;5.85;;;30.80;99.90;;;;;;6192926;23;20005;-93
2022/07/03 18:02:30;;;;;;;12.48;6.32;;;30.80;99.90;;;;;;6218274;23;20058;-94
2022/07/03 18:04:57;;;;;;;14.40;6.22;;;30.80;99.90;;;;;;6218471;23;20005;-91
2022/07/03 18:08:05;;;;;;;8.63;4.65;;;30.70;99.90;;;;;;6218113;23;20008;-94
2022/07/03 18:10:38;;;;;;;10.07;4.50;;;30.40;99.90;;;;;;6220589;23;20024;-93
2022/07/03 18:13:34;;;;;;;12.10;4.43;;;30.30;99.90;;;;;;6193701;23;20032;-93
2022/07/03 18:16:10;;;;;;;11.23;4.30;;;30.20;99.90;;;;;;6219580;23;20012;-94
2022/07/03 18:18:43;;;;;;;13.18;4.60;;;30.00;99.90;;;;;;6218215;23;20506;-92
2022/07/03 18:21:13;;;;;;;12.80;4.00;;;29.90;99.90;;;;;;6218471;23;20005;-92
2022/07/03 18:23:52;;;;;;;11.60;4.35;;;29.90;99.90;;;;;;6229994;23;20013;-93
2022/07/03 18:26:26;;;;;;;12.50;3.55;;;29.80;99.90;;;;;;6226676;23;20004;-92
2022/07/03 18:28:55;;;;;;;11.57;3.30;;;29.70;99.90;;;;;;6226428;23;20008;-92
2022/07/03 18:31:23;;;;;;;15.40;4.22;;;29.60;99.90;;;;;;6173319;23;20009;-92
2022/07/03 18:33:51;;;;;;;14.00;4.50;;;29.60;99.90;;;;;;6220004;23;20091;-92
2022/07/03 18:36:20;;;;;;;6.90;3.17;;;29.50;99.90;;;;;;6218606;23;19996;-93
2022/07/03 18:38:53;;;;;;;11.50;3.67;;;29.40;99.90;;;;;;6220434;23;20012;-93
2022/07/03 18:41:19;;;;;;;10.32;4.22;;;29.40;99.90;;;;;;6222833;23;20008;-93
2022/07/03 18:43:46;;;;;;;9.25;3.90;;;29.40;99.90;;;;;;6222013;23;20300;-93
2022/07/03 18:46:13;;;;;;;9.43;4.00;;;29.30;99.90;;;;;;6228370;23;20005;-92
2022/07/03 18:48:40;;;;;;;9.95;3.53;;;29.30;99.90;;;;;;6236610;23;20069;-93
2022/07/03 18:51:22;;;;;;;11.93;4.15;;;29.20;99.90;;;;;;6222513;23;20009;-94
2022/07/03 18:54:00;;;;;;;15.80;4.63;;;29.10;99.90;;;;;;6222115;23;20008;-94
2022/07/03 18:56:51;;;;;;;7.53;3.50;;;29.10;99.90;;;;;;6198862;23;20009;-93
2022/07/03 18:59:32;;;;;;;11.55;3.80;;;29.00;99.90;;;;;;6227532;23;20016;-93
2022/07/03 19:02:01;;;;;;;11.95;3.72;;;28.90;99.90;;;;;;6198007;23;20001;-93
2022/07/03 19:04:57;;;;;;;10.45;3.90;;;28.80;99.90;;;;;;6226794;23;20004;-93
2022/07/03 19:08:13;;;;;;;14.73;4.35;;;28.80;99.90;;;;;;6146934;23;19990;-94
